Flight Track Log - Related Links

Times and Time Zones

All times are in EDT time to prevent confusion due to time zone crossing. See the JBU808 flight status page for this flight to view local times or setup timezone preferences in your user account.

Time Position Orientation Groundspeed Altitude Reporting Facility
EDT Latitude Longitude Course Direction KTS MPH feet Rate Location/Type
Sat 02:27:09 PM 18.3333 -64.9333 281° West 170 196 1,500  Level San Juan Center
Sat 02:29:00 PM 18.2995 -65.1511 242° Southwest  Level FlightAware Approximate
Sat 02:30:00 PM 18.2833 -65.2096 270° West  Level FlightAware Approximate
Sat 02:31:00 PM 18.2905 -65.2715 281° West  Level FlightAware Approximate
Sat 02:32:00 PM 18.3021 -65.3330 281° West  Level FlightAware Approximate
Sat 02:33:17 PM 18.3600 -65.4550 281° West 358 412 9,900  Level FlightAware ADS-B
Sat 02:33:41 PM 18.3670 -65.4970 280° West 359 413 9,900  Level FlightAware ADS-B
Sat 02:34:13 PM 18.3760 -65.5520 280° West 359 413 9,900  Level FlightAware ADS-B
Sat 02:34:39 PM 18.3830 -65.5960 280° West 359 413 9,900  Level FlightAware ADS-B
Sat 02:35:09 PM 18.3910 -65.6460 280° West 354 407 9,900  Level FlightAware ADS-B
Sat 02:36:04 PM 18.3990 -65.7050 278° West 305 351 9,900 -1,286 Level FlightAware ADS-B
Sat 02:36:33 PM 18.3960 -65.7740 267° West 296 341 8,100 -3,000 Descending FlightAware ADS-B
Sat 02:36:58 PM 18.3950 -65.8090 268° West 291 335 7,200 -1,371 Descending FlightAware ADS-B
Sat 02:37:43 PM 18.3920 -65.8640 267° West 290 334 6,500 -1,793 Descending FlightAware ADS-B
Sat 02:38:25 PM 18.3910 -65.9330 269° West 289 333 4,600 -2,273 Descending FlightAware ADS-B
Sat 02:38:49 PM 18.3900 -65.9660 268° West 273 314 4,000 -1,962 Descending FlightAware ADS-B
Sat 02:39:17 PM 18.3890 -66.0040 268° West 274 315 2,900 -2,045 Descending FlightAware ADS-B
Sat 02:39:33 PM 18.3880 -66.0250 267° West 268 308 2,500 -667 Descending FlightAware ADS-B
Sat 02:40:02 PM 18.3880 -66.0600 270° West 240 276 2,400 -174 Descending FlightAware ADS-B
Sat 02:40:42 PM 18.3920 -66.1010 276° West 200 230 2,300 -429 Descending FlightAware ADS-B
Sat 02:40:58 PM 18.4040 -66.1100 325° Northwest 199 229 2,000 -1,200 Descending FlightAware ADS-B
Sat 02:41:27 PM 18.4270 -66.1020 18° North 189 217 1,400 -964 Descending FlightAware ADS-B
Sat 02:41:54 PM 18.4340 -66.0800 71° East 169 194 1,100 -764 Descending FlightAware ADS-B
Sat 02:42:22 PM 18.4340 -66.0580 90° East 146 168 700 -778 Descending FlightAware ADS-B
Sat 02:42:48 PM 18.4340 -66.0400 90° East 130 150 400 -692 Descending FlightAware ADS-B
Sat 02:43:53 PM 18.4340 -66.0010 90° East 84 97 -369 Descending FlightAware ADS-B
Sat 02:44:09 PM 18.4340 -65.9970 90° East 40 46  Level FlightAware ADS-B
Sat 02:44:36 PM 18.4340 -65.9920 90° East 40 46  Level FlightAware ADS-B

Login

Don't have an account? Register now (free) for customized features, flight alerts, and more!